Allisona, Tennessee
Current Conditions -  °F | °C
As of 12:53 PM on Saturday 25 Oct 2014 (Local Time) from KBNA Reporting Station
Few Clouds Few Clouds  
Wind Chill: 25°   Ceiling: Unl
Heat Index: 26°   Visibility: 10mi
Dew Point: 14°   Wind: 5mph
Humidity: 52%   Direction: 270°W
Pressure: 30.04"   Gusts: NA
Location:  35.7808°N, 86.7221°W
Report Text: KBNA 251753Z 27004KT 10SM FEW050 25/14 A3004 RMK AO2 SLP168 T02500144 10250 20072 58018
Loading
Personal Weather Stations






























Interactive Weather Map
Tropical Storm Tracking
New forecast layout! Learn more

10-Day Weather Forecast

Advertisements
Track Severe Weather on mobile